Time;durP1;ratioP1;P1;durP2;ratioP2;P2;SDS_P1;SDS_P2;PMS_P1;PMS_P2;Temp;Humidity;BMP_temperature;BMP_pressure;BME280_temperature;BME280_humidity;BME280_pressure;Samples;Min_cycle;Max_cycle;Signal;HPM_P1;HPM_P2
2023/07/02 00:01:25;;;;;;;11.25;8.50;;;;;;;27.26;44.52;98724.22;4375854;32;34877;-70
2023/07/02 00:03:52;;;;;;;12.02;7.87;;;;;;;27.25;44.62;98719.84;4375636;32;34710;-69
2023/07/02 00:06:20;;;;;;;9.05;7.32;;;;;;;27.25;44.66;98722.59;4375541;32;34549;-68
2023/07/02 00:08:48;;;;;;;11.30;8.65;;;;;;;27.24;44.70;98719.03;4375832;32;34123;-69
2023/07/02 00:11:15;;;;;;;12.48;8.35;;;;;;;27.24;44.73;98719.03;4375393;32;34367;-68
2023/07/02 00:13:43;;;;;;;10.82;8.18;;;;;;;27.24;44.61;98710.00;4376056;32;33753;-69
2023/07/02 00:16:10;;;;;;;12.55;9.32;;;;;;;27.23;44.49;98711.91;4377806;32;34740;-71
2023/07/02 00:18:38;;;;;;;13.93;9.07;;;;;;;27.23;44.46;98716.56;4377628;32;34025;-71
2023/07/02 00:21:06;;;;;;;10.13;8.18;;;;;;;27.22;44.60;98710.25;4377887;32;34252;-71
2023/07/02 00:23:34;;;;;;;11.38;9.30;;;;;;;27.21;44.63;98716.84;4377603;32;34799;-69
2023/07/02 00:26:01;;;;;;;11.85;9.38;;;;;;;27.21;44.65;98712.19;4377576;32;33592;-71
2023/07/02 00:28:29;;;;;;;11.32;9.05;;;;;;;27.21;44.72;98717.66;4377677;32;33499;-71
2023/07/02 00:30:56;;;;;;;12.43;8.55;;;;;;;27.20;44.74;98712.47;4364074;32;34564;-70
2023/07/02 00:33:24;;;;;;;12.55;9.27;;;;;;;27.20;44.69;98712.47;4377580;32;33916;-68
2023/07/02 00:35:52;;;;;;;11.48;9.57;;;;;;;27.20;44.68;98713.28;4377613;32;33723;-70
2023/07/02 00:38:21;;;;;;;11.15;9.55;;;;;;;27.20;44.63;98716.03;4377606;32;34004;-70
2023/07/02 00:40:49;;;;;;;12.05;9.40;;;;;;;27.18;44.60;98718.19;4363974;32;35123;-66
2023/07/02 00:43:17;;;;;;;12.18;9.63;;;;;;;27.19;44.59;98711.66;4377504;32;33349;-62
2023/07/02 00:45:45;;;;;;;13.32;9.52;;;;;;;27.17;44.57;98711.09;4377573;32;34335;-65
2023/07/02 00:48:13;;;;;;;13.02;9.30;;;;;;;27.18;44.48;98711.91;4377529;32;33528;-65
2023/07/02 00:50:40;;;;;;;12.95;9.80;;;;;;;27.18;44.46;98715.47;4377463;32;34222;-65
2023/07/02 00:53:09;;;;;;;13.65;9.65;;;;;;;27.18;44.39;98711.91;4377319;32;34301;-68
2023/07/02 00:55:38;;;;;;;11.68;9.05;;;;;;;27.16;44.50;98714.13;4351974;32;34620;-67
2023/07/02 00:58:06;;;;;;;12.77;9.32;;;;;;;27.16;44.45;98714.94;4377359;32;35047;-65
2023/07/02 01:00:34;;;;;;;14.63;9.45;;;;;;;27.16;44.50;98714.13;4377213;32;35011;-67
2023/07/02 01:03:02;;;;;;;12.43;10.05;;;;;;;27.17;44.44;98715.75;4377713;32;33501;-66
2023/07/02 01:05:35;;;;;;;11.38;9.00;;;;;;;27.16;44.38;98714.13;4376401;32;34684;-68
2023/07/02 01:08:04;;;;;;;12.73;10.57;;;;;;;27.15;44.33;98713.31;4377212;32;34417;-68
2023/07/02 01:10:32;;;;;;;12.50;9.48;;;;;;;27.15;44.39;98715.22;4377327;32;34841;-67
2023/07/02 01:13:05;;;;;;;12.18;9.57;;;;;;;27.13;44.47;98710.00;4377336;32;33623;-66
2023/07/02 01:15:32;;;;;;;12.27;9.57;;;;;;;27.13;44.62;98711.94;4348772;32;33735;-65
2023/07/02 01:18:00;;;;;;;12.65;10.43;;;;;;;27.14;44.67;98705.34;4348829;32;34620;-69
2023/07/02 01:20:30;;;;;;;13.60;9.32;;;;;;;27.13;44.67;98710.00;4348970;32;34679;-63
2023/07/02 01:23:02;;;;;;;12.43;9.15;;;;;;;27.14;44.61;98710.81;4337327;32;33620;-63
2023/07/02 01:25:29;;;;;;;13.82;9.75;;;;;;;27.14;44.63;98713.56;4349187;32;34744;-62
2023/07/02 01:27:58;;;;;;;12.55;9.35;;;;;;;27.13;44.70;98717.41;4362245;32;34674;-63
2023/07/02 01:30:26;;;;;;;13.65;9.57;;;;;;;27.13;44.76;98710.00;4348922;32;34524;-63
2023/07/02 01:32:53;;;;;;;14.13;10.65;;;;;;;27.14;44.63;98710.81;4372343;32;33802;-62
2023/07/02 01:35:21;;;;;;;11.25;8.38;;;;;;;27.13;44.59;98704.53;4377035;32;33112;-62
2023/07/02 01:37:48;;;;;;;13.00;9.68;;;;;;;27.13;44.53;98715.47;4377456;32;34331;-67
2023/07/02 01:40:16;;;;;;;12.05;8.93;;;;;;;27.12;44.41;98713.84;4377170;32;33989;-68
2023/07/02 01:42:44;;;;;;;13.57;9.52;;;;;;;27.12;44.39;98711.09;4377087;32;35410;-66
2023/07/02 01:45:11;;;;;;;13.43;9.70;;;;;;;27.11;44.41;98719.59;4363643;32;34690;-65
2023/07/02 01:47:39;;;;;;;10.23;8.35;;;;;;;27.11;44.36;98706.72;4363911;32;33876;-62
2023/07/02 01:50:09;;;;;;;11.23;8.77;;;;;;;27.10;44.34;98713.31;4376826;32;34916;-63
2023/07/02 01:52:37;;;;;;;12.23;9.65;;;;;;;27.11;44.30;98712.22;4377057;32;34580;-62
2023/07/02 01:55:05;;;;;;;12.77;8.55;;;;;;;27.10;44.38;98715.25;4377281;32;33926;-62
2023/07/02 01:57:32;;;;;;;12.57;9.38;;;;;;;27.09;44.51;98714.41;4376885;32;33584;-62
2023/07/02 02:00:00;;;;;;;11.77;8.60;;;;;;;27.09;44.42;98714.41;4377039;32;33704;-63
2023/07/02 02:02:28;;;;;;;11.07;8.43;;;;;;;27.10;44.38;98715.25;4377078;32;33732;-63
2023/07/02 02:04:56;;;;;;;13.50;9.25;;;;;;;27.08;44.32;98715.50;4376903;32;33935;-63
2023/07/02 02:07:24;;;;;;;12.48;9.52;;;;;;;27.08;44.31;98710.00;4376905;32;33870;-63
2023/07/02 02:09:51;;;;;;;14.10;9.35;;;;;;;27.08;44.32;98707.28;4377079;32;34062;-65
2023/07/02 02:12:19;;;;;;;11.93;8.73;;;;;;;27.09;44.29;98705.34;4376688;32;33273;-62
2023/07/02 02:14:47;;;;;;;9.95;8.00;;;;;;;27.08;44.24;98700.94;4376937;32;34783;-64
2023/07/02 02:17:14;;;;;;;10.98;8.52;;;;;;;27.07;44.17;98705.63;4377008;32;34869;-64
2023/07/02 02:19:42;;;;;;;13.70;8.20;;;;;;;27.07;44.13;98713.81;4376813;32;33948;-63
2023/07/02 02:22:09;;;;;;;10.98;8.73;;;;;;;27.07;44.08;98707.53;4376892;32;34642;-62
2023/07/02 02:24:37;;;;;;;14.65;8.73;;;;;;;27.06;44.07;98703.97;4376761;32;33864;-63
2023/07/02 02:27:04;;;;;;;11.80;8.82;;;;;;;27.06;44.05;98705.91;4376836;32;33628;-62
2023/07/02 02:29:32;;;;;;;13.18;9.63;;;;;;;27.05;44.02;98702.34;4376914;32;34173;-65
2023/07/02 02:32:00;;;;;;;13.02;8.40;;;;;;;27.05;44.07;98699.59;4376828;32;33584;-62
2023/07/02 02:34:29;;;;;;;11.70;8.57;;;;;;;27.05;44.10;98699.59;4363322;32;33580;-62
2023/07/02 02:36:57;;;;;;;12.23;8.55;;;;;;;27.05;44.05;98691.41;4376054;32;34563;-62
2023/07/02 02:39:24;;;;;;;11.32;8.45;;;;;;;27.04;44.06;98697.94;4376604;32;34150;-62
2023/07/02 02:41:52;;;;;;;10.82;8.18;;;;;;;27.04;44.02;98689.72;4377009;32;33199;-63
2023/07/02 02:44:20;;;;;;;12.10;9.30;;;;;;;27.04;44.00;98694.38;4376616;32;34214;-68
2023/07/02 02:46:47;;;;;;;11.75;8.35;;;;;;;27.04;43.97;98700.69;4376723;32;33995;-66
2023/07/02 02:49:15;;;;;;;10.60;7.68;;;;;;;27.04;43.93;98694.38;4376647;32;34848;-68
2023/07/02 02:51:43;;;;;;;12.77;8.00;;;;;;;27.03;43.92;98699.03;4376636;32;34092;-70
2023/07/02 02:54:10;;;;;;;11.12;8.52;;;;;;;27.03;43.89;98696.31;4376522;32;34021;-70
2023/07/02 02:56:38;;;;;;;9.90;7.55;;;;;;;27.04;43.92;98697.13;4376667;32;34668;-70
2023/07/02 02:59:05;;;;;;;12.43;8.07;;;;;;;27.02;43.88;98694.69;4376602;32;35025;-68
2023/07/02 03:01:33;;;;;;;10.77;8.30;;;;;;;27.01;43.85;98698.53;4376453;32;33438;-71
2023/07/02 03:04:01;;;;;;;11.18;7.87;;;;;;;27.02;43.83;98697.41;4376558;32;34473;-70
2023/07/02 03:06:28;;;;;;;10.93;7.93;;;;;;;27.02;43.81;98697.41;4376513;32;33957;-68
2023/07/02 03:08:56;;;;;;;11.25;7.32;;;;;;;27.02;43.75;98702.06;4376386;32;34518;-70
2023/07/02 03:11:24;;;;;;;11.73;7.45;;;;;;;27.02;43.73;98707.56;4376458;32;33461;-70
2023/07/02 03:13:51;;;;;;;11.05;7.57;;;;;;;27.00;43.70;98699.63;4376566;32;33911;-70
2023/07/02 03:16:21;;;;;;;10.32;7.60;;;;;;;27.00;43.66;98702.34;4376333;32;34863;-71
2023/07/02 03:18:49;;;;;;;11.90;7.22;;;;;;;27.01;43.64;98700.44;4376369;32;34849;-67
2023/07/02 03:21:16;;;;;;;8.32;6.15;;;;;;;27.01;43.58;98706.72;4373093;32;33581;-70
2023/07/02 03:23:44;;;;;;;9.57;7.00;;;;;;;26.99;43.55;98700.69;4361313;32;34655;-71
2023/07/02 03:26:12;;;;;;;10.75;6.93;;;;;;;26.99;43.54;98699.88;4361361;32;34181;-70
2023/07/02 03:28:39;;;;;;;10.02;7.30;;;;;;;26.98;43.54;98706.47;4361610;32;34115;-70
2023/07/02 03:31:07;;;;;;;11.15;7.20;;;;;;;26.99;43.51;98703.44;4361413;32;33717;-70
2023/07/02 03:33:34;;;;;;;10.88;6.85;;;;;;;26.99;43.55;98705.34;4361095;32;34750;-71
2023/07/02 03:36:02;;;;;;;10.30;7.12;;;;;;;26.98;43.51;98701.78;4361289;32;34060;-71
2023/07/02 03:38:30;;;;;;;12.48;6.80;;;;;;;26.98;43.47;98710.00;4361057;32;34902;-71
2023/07/02 03:40:57;;;;;;;10.77;6.60;;;;;;;26.98;43.40;98712.75;4361175;32;33545;-72
2023/07/02 03:43:25;;;;;;;10.88;7.20;;;;;;;26.98;43.45;98722.88;4361051;32;34895;-69
2023/07/02 03:45:53;;;;;;;9.23;6.68;;;;;;;26.97;43.42;98722.06;4360976;32;33803;-71
2023/07/02 03:48:21;;;;;;;9.65;6.68;;;;;;;26.96;43.41;98715.78;4361892;32;34834;-70
2023/07/02 03:50:48;;;;;;;8.60;5.78;;;;;;;26.96;43.37;98723.16;4363018;32;34567;-71
2023/07/02 03:53:16;;;;;;;12.57;6.22;;;;;;;26.96;43.36;98731.38;4362770;32;34075;-71
2023/07/02 03:55:44;;;;;;;9.35;6.47;;;;;;;26.95;43.35;98729.72;4362955;32;33747;-68
2023/07/02 03:58:12;;;;;;;8.57;6.07;;;;;;;26.96;43.29;98726.72;4362941;32;34373;-69
2023/07/02 04:00:40;;;;;;;8.57;6.25;;;;;;;26.95;43.24;98726.97;4362784;32;33834;-71
2023/07/02 04:03:08;;;;;;;9.60;6.05;;;;;;;26.94;43.22;98726.16;4362921;32;34664;-64
2023/07/02 04:05:35;;;;;;;9.25;5.47;;;;;;;26.95;43.24;98729.72;4362800;32;34780;-71
2023/07/02 04:08:03;;;;;;;9.73;5.80;;;;;;;26.94;43.20;98728.91;4362784;32;33953;-71
2023/07/02 04:10:31;;;;;;;8.52;6.55;;;;;;;26.94;43.18;98737.09;4362840;32;33350;-71
2023/07/02 04:12:58;;;;;;;7.75;5.80;;;;;;;26.94;43.17;98730.81;4362825;32;34007;-71
2023/07/02 04:15:26;;;;;;;9.13;6.37;;;;;;;26.93;43.14;98732.75;4362653;32;34115;-71
2023/07/02 04:17:54;;;;;;;7.05;5.35;;;;;;;26.93;43.12;98732.75;4362816;32;34103;-69
2023/07/02 04:20:22;;;;;;;8.02;5.40;;;;;;;26.94;43.10;98731.62;4363092;32;33855;-72
2023/07/02 04:22:49;;;;;;;7.90;5.45;;;;;;;26.93;43.09;98737.41;4375549;32;33819;-71
2023/07/02 04:25:17;;;;;;;7.90;5.65;;;;;;;26.93;43.06;98734.66;4377770;32;33793;-71
2023/07/02 04:28:04;;;;;;;11.52;5.40;;;;;;;26.93;43.01;98738.22;4377587;32;34130;-71
2023/07/02 04:30:32;;;;;;;8.63;5.25;;;;;;;26.94;42.99;98741.75;4377672;32;33727;-72
2023/07/02 04:33:00;;;;;;;8.98;5.95;;;;;;;26.92;42.98;98739.31;4377483;32;34752;-68
2023/07/02 04:35:28;;;;;;;11.45;6.22;;;;;;;26.93;43.05;98740.12;4377536;32;33704;-71
2023/07/02 04:37:57;;;;;;;7.53;4.57;;;;;;;26.94;43.03;98752.72;4377594;32;33937;-64
2023/07/02 04:40:24;;;;;;;7.77;4.70;;;;;;;26.92;43.05;98750.25;4374873;32;32610;-71
2023/07/02 04:42:57;;;;;;;7.78;5.15;;;;;;;26.93;42.96;98754.62;4366258;32;34639;-71
2023/07/02 04:45:25;;;;;;;9.63;5.87;;;;;;;26.93;42.97;98753.81;4362390;32;34818;-70
2023/07/02 04:47:53;;;;;;;7.82;5.20;;;;;;;26.93;42.96;98756.56;4339021;32;34833;-70
2023/07/02 04:50:21;;;;;;;9.13;5.10;;;;;;;26.92;42.95;98758.47;4362592;32;34650;-64
2023/07/02 04:52:48;;;;;;;10.80;5.07;;;;;;;26.92;42.92;98763.94;4362298;32;35384;-63
2023/07/02 04:55:16;;;;;;;9.95;5.37;;;;;;;26.93;42.92;98764.78;4362654;32;34686;-64
2023/07/02 04:57:44;;;;;;;7.65;5.10;;;;;;;26.92;42.91;98766.69;4362658;32;33962;-71
2023/07/02 05:00:12;;;;;;;7.22;5.10;;;;;;;26.92;42.92;98772.16;4362234;32;33460;-67
2023/07/02 05:02:40;;;;;;;7.95;5.20;;;;;;;26.92;42.90;98765.87;4362355;32;33930;-72
2023/07/02 05:05:08;;;;;;;7.65;5.00;;;;;;;26.91;42.90;98773.25;4362497;32;33903;-71
2023/07/02 05:07:36;;;;;;;7.85;5.20;;;;;;;26.91;42.90;98778.75;4349070;32;34298;-63
2023/07/02 05:10:04;;;;;;;7.97;5.22;;;;;;;26.92;42.91;98779.56;4362310;32;33521;-63
2023/07/02 05:12:32;;;;;;;7.18;4.57;;;;;;;26.92;42.90;98782.28;4362384;32;34763;-69
2023/07/02 05:15:00;;;;;;;7.68;4.60;;;;;;;26.92;42.90;98785.84;4362440;32;34883;-64
2023/07/02 05:17:28;;;;;;;7.95;5.00;;;;;;;26.92;42.90;98782.28;4362524;32;34279;-72
2023/07/02 05:19:55;;;;;;;8.45;5.30;;;;;;;26.93;42.88;98786.66;4362412;32;33722;-68
2023/07/02 05:22:23;;;;;;;8.63;4.82;;;;;;;26.93;42.85;98790.22;4372806;32;34275;-69
2023/07/02 05:24:50;;;;;;;8.23;4.87;;;;;;;26.92;42.84;98776.81;4377241;32;33775;-63
2023/07/02 05:27:18;;;;;;;8.40;4.80;;;;;;;26.92;42.83;98785.84;4374504;32;33764;-64
2023/07/02 05:29:46;;;;;;;8.65;4.78;;;;;;;26.92;42.81;98777.62;4377356;32;33355;-63
2023/07/02 05:32:13;;;;;;;7.30;4.78;;;;;;;26.92;42.80;98776.81;4377152;32;33963;-63
2023/07/02 05:34:41;;;;;;;8.82;4.62;;;;;;;26.93;42.80;98779.28;4377479;32;34104;-70
2023/07/02 05:37:09;;;;;;;7.03;4.65;;;;;;;26.93;42.80;98781.19;4377273;32;34849;-71
2023/07/02 05:39:36;;;;;;;7.28;5.00;;;;;;;26.92;42.80;98780.38;4377063;32;34507;-71
2023/07/02 05:42:04;;;;;;;7.80;4.60;;;;;;;26.93;42.78;98783.94;4377152;32;34120;-67
2023/07/02 05:44:32;;;;;;;16.30;5.32;;;;;;;26.93;42.75;98783.94;4377299;32;34004;-72
2023/07/02 05:46:59;;;;;;;6.90;4.75;;;;;;;26.92;42.71;98783.13;4377227;32;34048;-63
2023/07/02 05:49:27;;;;;;;9.30;4.70;;;;;;;26.92;42.73;98782.28;4377135;32;34623;-68
2023/07/02 05:51:54;;;;;;;8.45;4.40;;;;;;;26.92;42.71;98787.78;4377164;32;33812;-66
2023/07/02 05:54:22;;;;;;;7.50;4.35;;;;;;;26.91;42.75;98786.94;4376855;32;34411;-67
2023/07/02 05:56:49;;;;;;;7.37;4.57;;;;;;;26.93;42.75;98783.94;4377206;32;33888;-69
2023/07/02 05:59:19;;;;;;;8.15;4.80;;;;;;;26.92;42.75;98783.13;4377162;32;33695;-69
2023/07/02 06:01:46;;;;;;;8.18;4.50;;;;;;;26.92;42.74;98785.84;4376809;32;34601;-63
2023/07/02 06:04:14;;;;;;;8.68;4.70;;;;;;;26.92;42.70;98783.13;4377099;32;34654;-68
2023/07/02 06:06:42;;;;;;;7.50;4.72;;;;;;;26.91;42.74;98792.44;4377105;32;34375;-69
2023/07/02 06:09:09;;;;;;;9.27;4.68;;;;;;;26.92;42.70;98793.25;4376973;32;33365;-71
2023/07/02 06:11:39;;;;;;;;;;;;;;;26.91;42.70;98794.34;4376227;32;34799;-71
2023/07/02 06:14:06;;;;;;;7.68;4.72;;;;;;;27.03;42.48;98797.59;4376939;32;35552;-67
2023/07/02 06:16:34;;;;;;;8.07;4.85;;;;;;;26.95;42.57;98787.19;4377077;32;34020;-72
2023/07/02 06:19:02;;;;;;;7.75;4.35;;;;;;;26.92;42.66;98795.97;4376981;32;34590;-67
2023/07/02 06:21:30;;;;;;;8.55;4.90;;;;;;;26.91;42.68;98792.44;4358889;32;33940;-62
2023/07/02 06:23:58;;;;;;;7.90;4.87;;;;;;;26.91;42.68;98803.38;4361926;32;33597;-72
2023/07/02 06:26:26;;;;;;;6.30;4.30;;;;;;;26.92;42.67;98798.72;4361974;32;34913;-72
2023/07/02 06:28:54;;;;;;;7.20;4.78;;;;;;;26.91;42.67;98800.62;4361811;32;33378;-70
2023/07/02 06:32:04;;;;;;;7.43;4.82;;;;;;;27.04;42.58;98803.91;4515790;31;134041;-71
2023/07/02 06:34:32;;;;;;;8.20;4.60;;;;;;;26.93;42.65;98808.56;4511187;31;33252;-63
2023/07/02 06:36:59;;;;;;;6.47;4.18;;;;;;;26.93;42.67;98803.09;4510942;31;34656;-63
2023/07/02 06:39:27;;;;;;;7.43;4.40;;;;;;;26.93;42.66;98809.38;4510797;31;33796;-62
2023/07/02 06:41:54;;;;;;;7.32;3.92;;;;;;;26.92;42.66;98813.22;4510852;31;33621;-72
2023/07/02 06:44:27;;;;;;;6.57;4.57;;;;;;;26.93;42.65;98819.50;4511283;31;34075;-63
2023/07/02 06:46:54;;;;;;;5.82;4.00;;;;;;;26.94;42.65;98821.16;4497844;31;32708;-64
2023/07/02 06:49:22;;;;;;;7.45;4.07;;;;;;;26.94;42.64;98821.16;4511088;31;33897;-63
2023/07/02 06:51:50;;;;;;;7.50;4.10;;;;;;;26.93;42.64;98827.72;4510693;31;32562;-64
2023/07/02 06:54:18;;;;;;;7.35;4.10;;;;;;;26.93;42.63;98825.00;4511842;31;33074;-67
2023/07/02 06:56:45;;;;;;;5.90;4.07;;;;;;;26.94;42.65;98823.88;4510811;31;33827;-70
2023/07/02 06:59:18;;;;;;;7.43;4.32;;;;;;;26.94;42.66;98827.44;4503208;31;33786;-66
2023/07/02 07:01:46;;;;;;;7.45;4.18;;;;;;;26.95;42.72;98829.09;4487934;31;33444;-71
2023/07/02 07:04:14;;;;;;;8.90;4.35;;;;;;;26.96;42.80;98824.44;4503845;31;34142;-72
2023/07/02 07:06:42;;;;;;;8.27;4.30;;;;;;;26.95;42.83;98829.09;4488350;31;33810;-71
2023/07/02 07:09:10;;;;;;;7.12;4.43;;;;;;;26.96;42.82;98838.97;4503450;31;33828;-73
2023/07/02 07:11:37;;;;;;;6.47;4.05;;;;;;;26.97;42.84;98839.78;4502999;31;33525;-67
2023/07/02 07:14:05;;;;;;;6.87;4.78;;;;;;;26.98;42.81;98841.41;4483633;32;34205;-71
2023/07/02 07:16:32;;;;;;;7.85;4.30;;;;;;;27.01;42.87;98842.78;4495917;31;33559;-72
2023/07/02 07:19:00;;;;;;;6.78;4.45;;;;;;;27.00;42.90;98841.97;4495620;31;33798;-66
2023/07/02 07:21:28;;;;;;;6.53;3.90;;;;;;;27.01;42.90;98845.53;4502161;31;33899;-72
2023/07/02 07:23:56;;;;;;;7.95;4.55;;;;;;;27.02;42.90;98852.66;4504147;31;33152;-67
2023/07/02 07:26:23;;;;;;;8.13;4.40;;;;;;;27.02;42.87;98853.47;4503698;31;33919;-68
2023/07/02 07:28:51;;;;;;;8.25;4.57;;;;;;;27.01;42.60;98848.28;4502329;31;34851;-69
2023/07/02 07:31:19;;;;;;;9.60;4.00;;;;;;;27.01;42.18;98849.09;4501999;31;34339;-69
2023/07/02 07:33:46;;;;;;;8.60;4.37;;;;;;;27.03;41.95;98846.06;4488875;31;32357;-69
2023/07/02 07:36:14;;;;;;;6.70;4.18;;;;;;;27.04;41.68;98851.25;4502693;31;34647;-68
2023/07/02 07:38:45;;;;;;;6.95;3.83;;;;;;;27.05;41.78;98861.16;4499263;31;33649;-68
2023/07/02 07:41:12;;;;;;;6.95;3.92;;;;;;;27.05;41.78;98852.94;4474828;31;34451;-68
2023/07/02 07:43:40;;;;;;;9.23;4.30;;;;;;;27.11;41.80;98853.78;4478762;31;32474;-68
2023/07/02 07:46:08;;;;;;;8.50;3.90;;;;;;;27.13;41.91;98866.09;4478307;31;32806;-68
2023/07/02 07:48:35;;;;;;;5.95;3.83;;;;;;;27.09;42.07;98854.06;4477693;31;33705;-68
2023/07/02 07:51:03;;;;;;;7.30;3.92;;;;;;;27.10;41.74;98869.38;4489831;31;32413;-68
2023/07/02 07:53:31;;;;;;;7.40;4.18;;;;;;;27.12;41.65;98863.63;4487329;31;33061;-68
2023/07/02 07:55:58;;;;;;;7.22;4.05;;;;;;;27.14;41.54;98864.16;4483974;32;34228;-68
2023/07/02 07:58:26;;;;;;;7.72;4.18;;;;;;;27.14;41.59;98870.50;4483677;32;34008;-68
2023/07/02 08:00:53;;;;;;;5.78;3.70;;;;;;;27.16;41.55;98871.03;4495833;31;33719;-68
2023/07/02 08:03:21;;;;;;;5.78;3.70;;;;;;;27.16;41.54;98873.75;4469739;31;32387;-68
2023/07/02 08:05:49;;;;;;;6.57;3.85;;;;;;;27.18;41.47;98876.22;4479215;31;33906;-69
2023/07/02 08:08:16;;;;;;;6.62;4.20;;;;;;;27.18;41.59;98876.22;4490774;31;34747;-68
2023/07/02 08:10:45;;;;;;;8.85;4.00;;;;;;;27.17;41.69;98883.63;4488176;31;33724;-69
2023/07/02 08:13:13;;;;;;;6.30;3.67;;;;;;;27.18;41.67;98887.16;4490763;31;32395;-67
2023/07/02 08:15:40;;;;;;;7.22;4.28;;;;;;;27.18;41.68;98900.88;4495777;31;34301;-67
2023/07/02 08:18:09;;;;;;;6.43;3.75;;;;;;;27.17;41.79;98900.03;4499554;31;34004;-68
2023/07/02 08:20:37;;;;;;;7.30;4.20;;;;;;;27.18;41.76;98903.59;4499370;31;33607;-68
2023/07/02 08:23:04;;;;;;;7.00;4.07;;;;;;;27.19;41.60;98908.81;4471162;32;33422;-68
2023/07/02 08:25:32;;;;;;;8.63;3.15;;;;;;;27.18;41.66;98901.69;4484938;32;33573;-68
2023/07/02 08:27:59;;;;;;;5.87;3.75;;;;;;;27.19;41.68;98910.75;4457803;32;33244;-68
2023/07/02 08:30:27;;;;;;;6.55;3.80;;;;;;;27.17;41.69;98913.75;4483454;32;34129;-67
2023/07/02 08:32:55;;;;;;;6.05;3.83;;;;;;;27.17;41.72;98907.44;4483834;31;32391;-68
2023/07/02 08:35:23;;;;;;;6.28;3.83;;;;;;;27.19;41.65;98913.50;4483777;32;33919;-68
2023/07/02 08:37:50;;;;;;;6.72;3.75;;;;;;;27.19;41.43;98906.09;4476684;31;33947;-69
2023/07/02 08:40:18;;;;;;;8.18;4.10;;;;;;;27.19;41.31;98903.34;4492253;31;33242;-68
2023/07/02 08:42:47;;;;;;;7.37;3.80;;;;;;;27.20;41.32;98915.12;4489968;31;33522;-69
2023/07/02 08:45:16;;;;;;;8.65;4.18;;;;;;;27.23;41.24;98916.47;4492665;31;33610;-67
2023/07/02 08:47:44;;;;;;;6.03;3.65;;;;;;;27.21;41.41;98901.16;4491176;31;33407;-69
2023/07/02 08:50:13;;;;;;;8.63;4.22;;;;;;;27.24;41.38;98905.28;4476571;31;32336;-68
2023/07/02 08:52:40;;;;;;;8.05;3.75;;;;;;;27.25;41.38;98908.81;4478249;31;34109;-68
2023/07/02 08:55:09;;;;;;;8.25;4.03;;;;;;;27.21;41.30;98906.62;4488920;31;32717;-67
2023/07/02 08:57:36;;;;;;;6.05;3.97;;;;;;;27.25;41.43;98906.09;4492870;31;33535;-67
2023/07/02 09:00:09;;;;;;;6.25;3.80;;;;;;;27.26;41.38;98915.94;4482415;31;33688;-67
2023/07/02 09:02:37;;;;;;;7.43;4.22;;;;;;;27.27;41.16;98915.66;4464282;31;32273;-67
2023/07/02 09:05:05;;;;;;;7.70;4.20;;;;;;;27.28;41.03;98902.78;4490359;31;33901;-66
2023/07/02 09:07:46;;;;;;;7.72;4.28;;;;;;;27.28;41.03;98900.88;4491457;31;34471;-67
2023/07/02 09:10:30;;;;;;;8.05;4.32;;;;;;;27.29;41.01;98913.47;4465823;31;33052;-67
2023/07/02 09:13:07;;;;;;;6.50;4.15;;;;;;;27.34;41.03;98901.72;4491481;31;33358;-67
2023/07/02 09:15:36;;;;;;;6.97;4.53;;;;;;;27.34;41.25;98907.19;4465793;31;33885;-67
2023/07/02 09:18:20;;;;;;;6.60;4.28;;;;;;;27.32;41.36;98901.97;4491745;31;34467;-67
2023/07/02 09:20:52;;;;;;;9.32;4.47;;;;;;;27.38;41.14;98911.03;4498740;31;33941;-68
2023/07/02 09:23:20;;;;;;;6.30;4.28;;;;;;;27.39;40.88;98910.75;4483292;32;33322;-67
2023/07/02 09:25:47;;;;;;;6.20;3.95;;;;;;;27.40;40.84;98914.28;4484056;31;33896;-67
2023/07/02 09:28:19;;;;;;;8.90;4.95;;;;;;;27.39;40.92;98910.75;4497771;31;33298;-67
2023/07/02 09:30:55;;;;;;;6.62;4.20;;;;;;;27.40;40.98;98909.63;4486025;31;34629;-68
2023/07/02 09:33:27;;;;;;;8.07;4.47;;;;;;;27.43;40.92;98919.25;4487757;31;33218;-69
2023/07/02 09:35:55;;;;;;;7.55;4.50;;;;;;;27.43;40.92;98916.50;4484670;32;33964;-67
2023/07/02 09:38:23;;;;;;;6.00;4.25;;;;;;;27.43;40.90;98903.63;4484350;32;33986;-67
2023/07/02 09:40:51;;;;;;;8.82;4.80;;;;;;;27.42;40.75;98906.66;4486305;31;33476;-67
2023/07/02 09:43:20;;;;;;;6.00;4.18;;;;;;;27.43;40.61;98917.31;4500489;31;34192;-69
2023/07/02 09:45:48;;;;;;;8.55;4.72;;;;;;;27.44;40.74;98916.22;4498561;31;33957;-68
2023/07/02 09:48:16;;;;;;;7.72;4.45;;;;;;;27.48;40.77;98916.50;4498736;31;34044;-68
2023/07/02 09:50:45;;;;;;;6.53;3.97;;;;;;;27.48;40.52;98905.53;4500176;31;33841;-69
2023/07/02 09:53:13;;;;;;;6.97;4.35;;;;;;;27.49;40.14;98911.84;4499782;31;33441;-67
2023/07/02 09:55:42;;;;;;;6.40;4.20;;;;;;;27.50;40.24;98908.00;4500052;31;33893;-67
2023/07/02 09:58:11;;;;;;;7.70;4.78;;;;;;;27.49;40.29;98911.84;4499993;31;34757;-67
2023/07/02 10:00:39;;;;;;;6.93;4.78;;;;;;;27.52;40.13;98916.78;4486564;31;33871;-66
2023/07/02 10:03:07;;;;;;;7.12;4.10;;;;;;;27.52;40.07;98917.59;4484204;32;33894;-67
2023/07/02 10:05:34;;;;;;;6.28;3.90;;;;;;;27.52;40.06;98909.38;4482688;32;33832;-67
2023/07/02 10:08:21;;;;;;;11.05;4.10;;;;;;;27.54;40.09;98915.38;4482910;32;33781;-67
2023/07/02 10:10:49;;;;;;;7.50;4.10;;;;;;;27.57;40.04;98925.81;4482956;32;34512;-67
2023/07/02 10:13:27;;;;;;;6.45;3.95;;;;;;;27.56;40.03;98926.91;4483915;32;33963;-67
2023/07/02 10:16:02;;;;;;;8.25;3.95;;;;;;;27.59;39.93;98923.59;4484203;32;33934;-67
2023/07/02 10:18:30;;;;;;;8.75;3.78;;;;;;;27.60;39.81;98916.19;4493252;31;33918;-67
2023/07/02 10:20:58;;;;;;;6.10;3.87;;;;;;;27.59;39.75;98914.56;4498150;31;33761;-68
2023/07/02 10:23:35;;;;;;;5.72;4.03;;;;;;;27.60;39.82;98906.06;4484206;32;33495;-67
2023/07/02 10:26:21;;;;;;;7.37;4.12;;;;;;;27.63;39.85;98910.19;4483633;32;33716;-67
2023/07/02 10:28:58;;;;;;;6.05;4.22;;;;;;;27.64;39.89;98909.06;4482682;31;33987;-67
2023/07/02 10:31:26;;;;;;;7.20;3.83;;;;;;;27.63;39.90;98900.03;4495237;31;33477;-68
2023/07/02 10:33:53;;;;;;;6.37;4.32;;;;;;;27.61;40.08;98904.16;4499658;31;33986;-68
2023/07/02 10:36:23;;;;;;;6.70;4.07;;;;;;;27.62;40.14;98895.66;4499113;31;33989;-68
2023/07/02 10:38:51;;;;;;;8.45;4.43;;;;;;;27.65;40.12;98907.97;4497806;31;33890;-68
2023/07/02 10:41:25;;;;;;;8.75;4.22;;;;;;;27.71;39.96;98906.88;4497645;31;33713;-68
2023/07/02 10:43:53;;;;;;;8.93;4.20;;;;;;;27.74;39.77;98906.34;4497634;31;33329;-68
2023/07/02 10:46:21;;;;;;;7.85;4.00;;;;;;;27.71;39.90;98907.72;4484860;31;34748;-68
2023/07/02 10:48:53;;;;;;;8.45;4.35;;;;;;;27.73;39.97;98906.62;4488410;31;33830;-68
2023/07/02 10:51:21;;;;;;;6.93;4.10;;;;;;;27.75;40.16;98898.97;4483160;32;33568;-68
2023/07/02 10:53:59;;;;;;;8.68;4.22;;;;;;;27.76;40.10;98892.38;4483101;32;33450;-67
2023/07/02 10:56:30;;;;;;;7.62;3.85;;;;;;;27.80;40.02;98898.97;4481863;32;35118;-68
2023/07/02 10:58:57;;;;;;;7.07;4.03;;;;;;;27.82;40.03;98904.97;4481744;32;33322;-67
2023/07/02 11:01:29;;;;;;;7.25;4.28;;;;;;;27.86;39.49;98900.56;4481880;32;33628;-68
2023/07/02 11:04:01;;;;;;;7.62;4.22;;;;;;;27.85;39.39;98894.28;4481740;32;33932;-67
2023/07/02 11:06:30;;;;;;;7.65;4.10;;;;;;;27.84;39.41;98897.28;4481664;32;34406;-67
2023/07/02 11:08:58;;;;;;;7.50;3.92;;;;;;;27.86;39.39;98895.91;4482520;32;34721;-66
2023/07/02 11:11:25;;;;;;;5.82;3.83;;;;;;;27.87;39.41;98902.22;4481629;32;33694;-67
2023/07/02 11:13:53;;;;;;;5.85;3.60;;;;;;;27.87;39.52;98894.81;4482929;32;34115;-67
2023/07/02 11:16:29;;;;;;;7.55;3.87;;;;;;;27.87;39.57;98891.25;4468525;32;32511;-67
2023/07/02 11:19:08;;;;;;;6.87;4.18;;;;;;;27.90;39.57;98890.69;4483159;31;34047;-68
2023/07/02 11:21:36;;;;;;;5.50;3.60;;;;;;;27.92;39.50;98885.75;4499503;31;33679;-68
2023/07/02 11:24:06;;;;;;;6.85;3.78;;;;;;;27.89;39.65;98884.41;4499506;31;34222;-68
2023/07/02 11:26:40;;;;;;;5.93;3.97;;;;;;;27.86;39.89;98889.63;4500933;31;33486;-68
2023/07/02 11:29:10;;;;;;;6.82;4.05;;;;;;;27.89;39.93;98891.81;4500658;31;33911;-68
2023/07/02 11:31:38;;;;;;;6.47;3.70;;;;;;;27.86;39.85;98892.34;4499276;31;33807;-68
2023/07/02 11:34:15;;;;;;;7.68;3.67;;;;;;;27.86;39.84;98886.88;4500695;31;33211;-68
2023/07/02 11:36:46;;;;;;;7.35;3.78;;;;;;;27.86;39.88;98892.34;4486747;31;32733;-68
2023/07/02 11:39:15;;;;;;;6.03;3.67;;;;;;;27.86;39.96;98886.88;4486391;31;33488;-69